createdAt,value
2019-02-15T00:00:33.415Z,96231.64
2019-02-15T00:03:03.344Z,96226.84
2019-02-15T00:05:32.636Z,96230.01
2019-02-15T00:08:02.046Z,96233.51
2019-02-15T00:10:31.443Z,96236.20
2019-02-15T00:13:00.863Z,96241.81
2019-02-15T00:15:30.187Z,96232.22
2019-02-15T00:18:18.562Z,96232.95
2019-02-15T00:21:10.006Z,96240.89
2019-02-15T00:23:39.423Z,96236.60
2019-02-15T00:26:08.918Z,96241.15
2019-02-15T00:28:38.288Z,96236.63
2019-02-15T00:31:09.129Z,96225.48
2019-02-15T00:33:38.556Z,96232.40
2019-02-15T00:36:07.905Z,96232.92
2019-02-15T00:38:37.247Z,96228.11
2019-02-15T00:41:06.658Z,96224.09
2019-02-15T00:43:36.099Z,96222.55
2019-02-15T00:46:15.266Z,96223.06
2019-02-15T00:48:44.741Z,96214.25
2019-02-15T00:51:39.073Z,96219.88
2019-02-15T00:54:26.053Z,96207.36
2019-02-15T00:57:23.438Z,96215.34
2019-02-15T01:00:15.224Z,96215.66
2019-02-15T01:02:54.923Z,96215.13
2019-02-15T01:05:43.227Z,96213.80
2019-02-15T01:08:37.347Z,96214.55
2019-02-15T01:11:17.949Z,96219.39
2019-02-15T01:13:47.394Z,96203.95
2019-02-15T01:16:16.785Z,96206.06
2019-02-15T01:18:46.211Z,96203.94
2019-02-15T01:21:15.586Z,96205.80
2019-02-15T01:23:44.975Z,96217.00
2019-02-15T01:26:31.917Z,96213.80
2019-02-15T01:29:12.640Z,96217.47
2019-02-15T01:32:00.892Z,96218.99
2019-02-15T01:34:41.220Z,96217.09
2019-02-15T01:37:24.665Z,96215.77
2019-02-15T01:40:07.916Z,96219.53
2019-02-15T01:42:54.856Z,96221.66
2019-02-15T01:45:28.495Z,96219.78
2019-02-15T01:47:57.927Z,96220.47
2019-02-15T01:50:27.420Z,96223.11
2019-02-15T01:52:56.856Z,96219.63
2019-02-15T01:55:26.251Z,96219.28
2019-02-15T01:57:55.644Z,96215.77
2019-02-15T02:00:27.486Z,96213.36
2019-02-15T02:02:56.822Z,96220.05
2019-02-15T02:05:26.164Z,96216.04
2019-02-15T02:07:55.600Z,96212.11
2019-02-15T02:10:24.921Z,96215.04
2019-02-15T02:12:54.320Z,96221.16
2019-02-15T02:15:23.701Z,96210.07
2019-02-15T02:17:53.084Z,96212.98
2019-02-15T02:20:22.450Z,96204.50
2019-02-15T02:22:51.901Z,96204.19
2019-02-15T02:25:21.332Z,96202.34
2019-02-15T02:27:50.682Z,96205.29
2019-02-15T02:30:20.132Z,96201.05
2019-02-15T02:32:49.458Z,96204.80
2019-02-15T02:35:18.824Z,96199.09
2019-02-15T02:37:48.353Z,96198.84
2019-02-15T02:40:17.727Z,96193.67
2019-02-15T02:42:47.204Z,96197.09
2019-02-15T02:45:16.650Z,96034.24
2019-02-15T02:47:46.004Z,96192.89
2019-02-15T02:50:15.380Z,96191.87
2019-02-15T02:52:44.776Z,96192.97
2019-02-15T02:55:14.160Z,96191.64
2019-02-15T02:57:43.560Z,96194.59
2019-02-15T03:00:13.237Z,96186.00
2019-02-15T03:02:42.558Z,96186.00
2019-02-15T03:05:11.911Z,96198.22
2019-02-15T03:07:41.284Z,96204.59
2019-02-15T03:10:10.626Z,96196.85
2019-02-15T03:12:40.055Z,96204.03
2019-02-15T03:15:09.401Z,96195.81
2019-02-15T03:17:38.804Z,96195.77
2019-02-15T03:20:08.366Z,96194.93
2019-02-15T03:22:37.809Z,96195.47
2019-02-15T03:25:07.555Z,96197.14
2019-02-15T03:27:36.920Z,96199.77
2019-02-15T03:30:06.964Z,96200.88
2019-02-15T03:32:36.322Z,96195.84
2019-02-15T03:35:06.243Z,96204.59
2019-02-15T03:37:53.617Z,96202.38
2019-02-15T03:40:26.301Z,96206.66
2019-02-15T03:42:55.696Z,96210.14
2019-02-15T03:45:25.052Z,96214.39
2019-02-15T03:47:54.404Z,96204.55
2019-02-15T03:50:23.794Z,96204.55
2019-02-15T03:52:53.134Z,96210.65
2019-02-15T03:55:22.512Z,96208.64
2019-02-15T03:57:51.915Z,96212.37
2019-02-15T04:00:21.293Z,96210.83
2019-02-15T04:02:50.747Z,96210.61
2019-02-15T04:05:20.127Z,96214.14
2019-02-15T04:07:49.561Z,96212.50
2019-02-15T04:10:18.910Z,96207.33
2019-02-15T04:12:48.280Z,96206.29
2019-02-15T04:15:17.631Z,96212.66
2019-02-15T04:17:46.998Z,96213.71
2019-02-15T04:20:16.418Z,96210.58
2019-02-15T04:22:45.843Z,96221.89
2019-02-15T04:25:15.207Z,96226.69
2019-02-15T04:27:44.640Z,96225.07
2019-02-15T04:30:13.995Z,96225.59
2019-02-15T04:32:43.418Z,96230.06
2019-02-15T04:35:12.758Z,96229.03
2019-02-15T04:37:42.114Z,96237.55
2019-02-15T04:40:11.495Z,96235.18
2019-02-15T04:42:40.878Z,96243.97
2019-02-15T04:45:10.450Z,96237.34
2019-02-15T04:47:39.914Z,96238.63
2019-02-15T04:50:10.273Z,96246.82
2019-02-15T04:52:39.720Z,96246.82
2019-02-15T04:55:09.238Z,96249.67
2019-02-15T04:57:38.629Z,96251.52
2019-02-15T05:00:08.341Z,96248.69
2019-02-15T05:02:37.782Z,96250.05
2019-02-15T05:05:07.175Z,96259.36
2019-02-15T05:07:36.723Z,96264.29
2019-02-15T05:10:06.341Z,96264.29
2019-02-15T05:12:35.699Z,96270.31
2019-02-15T05:15:05.542Z,96275.03
2019-02-15T05:17:34.993Z,96281.09
2019-02-15T05:20:04.538Z,96284.78
2019-02-15T05:22:33.923Z,96293.25
2019-02-15T05:25:03.378Z,96292.70
2019-02-15T05:27:32.696Z,96294.38
2019-02-15T05:30:02.094Z,96295.59
2019-02-15T05:32:31.508Z,96299.91
2019-02-15T05:35:00.913Z,96306.30
2019-02-15T05:37:30.301Z,96311.70
2019-02-15T05:39:59.674Z,96313.52
2019-02-15T05:42:29.026Z,96323.59
2019-02-15T05:45:03.768Z,96319.05
2019-02-15T05:47:29.833Z,96321.66
2019-02-15T05:49:59.159Z,96322.39
2019-02-15T05:52:28.608Z,96320.59
2019-02-15T05:54:57.969Z,96335.72
2019-02-15T05:57:27.395Z,96331.78
2019-02-15T05:59:56.841Z,96335.35
2019-02-15T06:02:26.186Z,96338.79
2019-02-15T06:04:55.624Z,96343.59
2019-02-15T06:07:25.036Z,96346.80
2019-02-15T06:09:54.386Z,96355.09
2019-02-15T06:12:24.146Z,96352.72
2019-02-15T06:14:53.592Z,96355.59
2019-02-15T06:17:22.942Z,96360.34
2019-02-15T06:19:52.405Z,96361.59
2019-02-15T06:22:21.825Z,96364.80
2019-02-15T06:24:51.246Z,96361.75
2019-02-15T06:27:20.725Z,96363.17
2019-02-15T06:29:50.147Z,96365.90
2019-02-15T06:32:19.492Z,96362.33
2019-02-15T06:34:48.897Z,96356.88
2019-02-15T06:37:18.341Z,96367.56
2019-02-15T06:39:47.754Z,96366.42
2019-02-15T06:42:17.164Z,96366.42
2019-02-15T06:44:46.564Z,96365.09
2019-02-15T06:47:15.910Z,96379.13
2019-02-15T06:49:45.252Z,96384.39
2019-02-15T06:52:14.703Z,96396.41
2019-02-15T06:54:44.087Z,96396.41
2019-02-15T06:57:13.454Z,96393.31
2019-02-15T06:59:50.883Z,96391.16
2019-02-15T07:02:25.932Z,96391.16
2019-02-15T07:05:04.400Z,96399.45
2019-02-15T07:07:33.831Z,96384.80
2019-02-15T07:10:03.253Z,96404.41
2019-02-15T07:12:32.648Z,96404.41
2019-02-15T07:15:01.997Z,96397.75
2019-02-15T07:17:31.420Z,96398.70
2019-02-15T07:20:00.825Z,96411.48
2019-02-15T07:22:30.313Z,96412.52
2019-02-15T07:24:59.660Z,96405.11
2019-02-15T07:27:29.065Z,96413.91
2019-02-15T07:29:58.441Z,96399.69
2019-02-15T07:32:29.373Z,96334.55
2019-02-15T07:34:58.840Z,96334.55
2019-02-15T07:37:28.220Z,96404.00
2019-02-15T07:39:57.627Z,96393.55
2019-02-15T07:42:27.078Z,96409.46
2019-02-15T07:44:56.584Z,96391.19
2019-02-15T07:47:25.999Z,96391.19
2019-02-15T07:49:55.652Z,96391.96
2019-02-15T07:52:25.038Z,96387.73
2019-02-15T07:54:54.412Z,96377.61
2019-02-15T07:57:24.001Z,96383.00
2019-02-15T07:59:53.391Z,96369.96
2019-02-15T08:02:22.754Z,96384.10
2019-02-15T08:04:52.159Z,96387.80
2019-02-15T08:07:21.499Z,96394.63
2019-02-15T08:09:50.926Z,96394.06
2019-02-15T08:12:20.312Z,96399.70
2019-02-15T08:14:49.677Z,96396.50
2019-02-15T08:17:19.032Z,96399.23
2019-02-15T08:19:48.396Z,96400.06
2019-02-15T08:22:17.725Z,96396.89
2019-02-15T08:24:47.065Z,96402.17
2019-02-15T08:27:16.439Z,96406.96
2019-02-15T08:29:45.748Z,96413.91
2019-02-15T08:32:15.144Z,96413.05
2019-02-15T08:34:44.493Z,96406.94
2019-02-15T08:37:14.003Z,96418.67
2019-02-15T08:39:43.430Z,96420.28
2019-02-15T08:42:12.788Z,96425.34
2019-02-15T08:44:42.235Z,96424.33
2019-02-15T08:47:11.641Z,96431.62
2019-02-15T08:49:40.982Z,96431.62
2019-02-15T08:52:10.338Z,96424.69
2019-02-15T08:54:39.785Z,96425.79
2019-02-15T08:57:09.142Z,96421.78
2019-02-15T08:59:39.378Z,96423.41
2019-02-15T09:02:20.912Z,96414.84
2019-02-15T09:04:50.254Z,96427.71
2019-02-15T09:07:19.582Z,96429.08
2019-02-15T09:09:49.225Z,96423.97
2019-02-15T09:12:18.601Z,96436.28
2019-02-15T09:14:48.071Z,96437.88
2019-02-15T09:17:17.444Z,96433.26
2019-02-15T09:19:47.056Z,96433.00
2019-02-15T09:22:16.740Z,96448.69
2019-02-15T09:24:46.157Z,96441.20
2019-02-15T09:27:24.805Z,96451.39
2019-02-15T09:29:54.119Z,96452.82
2019-02-15T09:32:23.607Z,96449.50
2019-02-15T09:34:52.938Z,96448.47
2019-02-15T09:37:22.423Z,96445.84
2019-02-15T09:39:51.801Z,96453.59
2019-02-15T09:42:21.381Z,96454.38
2019-02-15T09:44:51.102Z,96460.82
2019-02-15T09:47:20.918Z,96458.16
2019-02-15T09:49:50.302Z,96458.95
2019-02-15T09:52:19.793Z,96464.98
2019-02-15T09:54:49.255Z,96464.33
2019-02-15T09:57:18.891Z,96453.62
2019-02-15T09:59:48.359Z,96453.62
2019-02-15T10:02:17.683Z,96452.42
2019-02-15T10:04:47.053Z,96441.78
2019-02-15T10:07:17.032Z,96454.52
2019-02-15T10:09:46.362Z,96452.93
2019-02-15T10:12:15.840Z,96456.08
2019-02-15T10:14:45.273Z,96451.03
2019-02-15T10:17:14.686Z,96448.62
2019-02-15T10:19:44.043Z,96458.77
2019-02-15T10:22:13.611Z,96460.09
2019-02-15T10:24:43.086Z,96460.09
2019-02-15T10:27:12.481Z,96455.03
2019-02-15T10:29:42.015Z,96460.67
2019-02-15T10:32:11.319Z,96460.12
2019-02-15T10:34:40.808Z,96466.54
2019-02-15T10:37:10.329Z,96458.21
2019-02-15T10:39:39.691Z,96469.85
2019-02-15T10:42:09.145Z,96467.17
2019-02-15T10:44:38.660Z,96467.17
2019-02-15T10:47:13.971Z,96475.14
2019-02-15T10:49:39.199Z,96474.66
2019-02-15T10:52:08.685Z,96477.88
2019-02-15T10:54:38.123Z,96477.88
2019-02-15T10:57:07.468Z,96480.02
2019-02-15T10:59:36.936Z,96484.77
2019-02-15T11:02:06.323Z,96477.94
2019-02-15T11:04:35.662Z,96480.83
2019-02-15T11:07:05.135Z,96482.67
2019-02-15T11:09:34.492Z,96487.02
2019-02-15T11:12:03.969Z,96476.20
2019-02-15T11:14:33.346Z,96478.63
2019-02-15T11:17:03.272Z,96488.77
2019-02-15T11:19:32.837Z,96480.33
2019-02-15T11:22:02.212Z,96485.35
2019-02-15T11:24:32.495Z,96480.84
2019-02-15T11:27:01.897Z,96483.70
2019-02-15T11:29:31.219Z,96489.72
2019-02-15T11:32:00.539Z,96489.41
2019-02-15T11:34:29.964Z,96487.55
2019-02-15T11:36:59.353Z,96482.22
2019-02-15T11:39:28.775Z,96475.00
2019-02-15T11:41:58.128Z,96474.13
2019-02-15T11:44:27.465Z,96478.33
2019-02-15T11:46:57.004Z,96477.38
2019-02-15T11:49:26.406Z,96475.73
2019-02-15T11:51:55.778Z,96481.09
2019-02-15T11:54:25.137Z,96480.63
2019-02-15T11:56:54.525Z,96479.09
2019-02-15T11:59:23.933Z,96483.87
2019-02-15T12:01:53.286Z,96476.25
2019-02-15T12:04:22.671Z,96491.42
2019-02-15T12:06:51.988Z,96486.05
2019-02-15T12:09:21.331Z,96491.98
2019-02-15T12:11:50.764Z,96492.45
2019-02-15T12:14:20.120Z,96489.64
2019-02-15T12:16:49.475Z,96483.84
2019-02-15T12:19:18.866Z,96496.89
2019-02-15T12:21:48.271Z,96484.56
2019-02-15T12:24:17.681Z,96495.42
2019-02-15T12:26:47.115Z,96482.45
2019-02-15T12:29:16.514Z,96481.22
2019-02-15T12:31:45.832Z,96482.80
2019-02-15T12:34:15.242Z,96481.72
2019-02-15T12:36:44.570Z,96486.98
2019-02-15T12:39:14.428Z,96473.73
2019-02-15T12:41:43.839Z,96485.59
2019-02-15T12:44:13.238Z,96480.80
2019-02-15T12:46:42.704Z,96477.62
2019-02-15T12:49:12.095Z,96471.03
2019-02-15T12:51:42.091Z,96475.02
2019-02-15T12:54:11.452Z,96476.12
2019-02-15T12:56:40.926Z,96472.64
2019-02-15T12:59:10.345Z,96467.61
2019-02-15T13:01:39.799Z,96471.34
2019-02-15T13:04:09.198Z,96472.13
2019-02-15T13:06:38.561Z,96463.64
2019-02-15T13:09:08.072Z,96467.90
2019-02-15T13:11:37.553Z,96466.33
2019-02-15T13:14:06.966Z,96476.49
2019-02-15T13:16:36.350Z,96467.09
2019-02-15T13:19:05.793Z,96467.09
2019-02-15T13:21:35.093Z,96478.25
2019-02-15T13:24:04.502Z,96476.92
2019-02-15T13:26:33.956Z,96472.57
2019-02-15T13:29:03.551Z,96478.66
2019-02-15T13:31:32.970Z,96482.92
2019-02-15T13:34:02.402Z,96475.73
2019-02-15T13:36:31.800Z,96473.59
2019-02-15T13:39:01.092Z,96482.59
2019-02-15T13:41:30.545Z,96486.09
2019-02-15T13:43:59.881Z,96488.44
2019-02-15T13:46:29.299Z,96497.11
2019-02-15T13:48:58.631Z,96498.39
2019-02-15T13:51:27.968Z,96483.98
2019-02-15T13:53:57.896Z,96498.44
2019-02-15T13:56:27.225Z,96497.49
2019-02-15T13:58:57.000Z,96494.07
2019-02-15T14:01:26.419Z,96493.36
2019-02-15T14:03:55.785Z,96486.56
2019-02-15T14:06:25.266Z,96492.05
2019-02-15T14:08:54.634Z,96480.75
2019-02-15T14:11:24.029Z,96476.84
2019-02-15T14:13:53.387Z,96476.84
2019-02-15T14:16:23.871Z,96488.77
2019-02-15T14:18:53.389Z,96488.77
2019-02-15T14:21:22.952Z,96488.31
2019-02-15T14:23:52.267Z,96488.31
2019-02-15T14:26:21.579Z,96480.53
2019-02-15T14:28:50.930Z,96479.34
2019-02-15T14:31:20.378Z,96479.34
2019-02-15T14:33:49.864Z,96460.61
2019-02-15T14:36:19.289Z,96462.66
2019-02-15T14:38:50.190Z,96462.66
2019-02-15T14:41:19.540Z,96475.40
2019-02-15T14:43:48.905Z,96457.75
2019-02-15T14:46:18.295Z,96457.75
2019-02-15T14:48:47.689Z,96473.91
2019-02-15T14:51:17.073Z,96469.66
2019-02-15T14:53:46.461Z,96473.92
2019-02-15T14:56:15.822Z,96473.92
2019-02-15T14:58:45.191Z,96475.36
2019-02-15T15:01:14.592Z,96494.10
2019-02-15T15:03:44.092Z,96489.81
2019-02-15T15:06:13.499Z,96484.73
2019-02-15T15:08:42.987Z,96479.84
2019-02-15T15:11:12.325Z,96479.84
2019-02-15T15:13:41.674Z,96468.22
2019-02-15T15:16:11.012Z,96468.22
2019-02-15T15:18:40.357Z,96482.66
2019-02-15T15:21:09.713Z,96471.66
2019-02-15T15:23:39.133Z,96454.64
2019-02-15T15:26:11.855Z,96472.00
2019-02-15T15:28:39.637Z,96479.47
2019-02-15T15:31:11.338Z,96479.47
2019-02-15T15:33:40.217Z,96473.34
2019-02-15T15:36:09.644Z,96482.15
2019-02-15T15:38:39.095Z,96480.72
2019-02-15T15:41:08.526Z,96483.89
2019-02-15T15:43:37.964Z,96494.20
2019-02-15T15:46:07.368Z,96486.69
2019-02-15T15:48:36.722Z,96494.67
2019-02-15T15:51:06.266Z,96495.41
2019-02-15T15:53:35.705Z,96500.33
2019-02-15T15:56:05.131Z,96494.63
2019-02-15T15:58:34.550Z,96496.83
2019-02-15T16:01:03.909Z,96509.06
2019-02-15T16:03:33.260Z,96510.91
2019-02-15T16:06:02.745Z,96517.25
2019-02-15T16:08:32.188Z,96519.66
2019-02-15T16:11:01.585Z,96524.80
2019-02-15T16:13:30.938Z,96524.28
2019-02-15T16:16:00.321Z,96525.97
2019-02-15T16:18:34.234Z,96527.79
2019-02-15T16:21:00.806Z,96537.11
2019-02-15T16:23:30.240Z,96540.61
2019-02-15T16:25:59.618Z,96531.17
2019-02-15T16:28:29.036Z,96531.17
2019-02-15T16:30:58.384Z,96537.08
2019-02-15T16:33:27.775Z,96542.77
2019-02-15T16:35:57.119Z,96543.84
2019-02-15T16:38:26.485Z,96554.84
2019-02-15T16:40:55.871Z,96553.21
2019-02-15T16:43:25.300Z,96563.37
2019-02-15T16:45:54.711Z,96563.70
2019-02-15T16:48:24.083Z,96570.16
2019-02-15T16:50:53.489Z,96580.77
2019-02-15T16:53:22.881Z,96581.42
2019-02-15T16:55:52.435Z,96588.14
2019-02-15T16:58:21.894Z,96592.00
2019-02-15T17:00:51.322Z,96587.69
2019-02-15T17:03:20.639Z,96595.67
2019-02-15T17:05:49.940Z,96601.67
2019-02-15T17:08:19.261Z,96604.08
2019-02-15T17:10:48.664Z,96601.94
2019-02-15T17:13:18.075Z,96606.73
2019-02-15T17:15:47.747Z,96610.54
2019-02-15T17:18:17.131Z,96608.72
2019-02-15T17:20:46.597Z,96616.71
2019-02-15T17:23:16.172Z,96618.27
2019-02-15T17:25:48.304Z,96624.82
2019-02-15T17:28:17.705Z,96620.89
2019-02-15T17:30:47.555Z,96618.05
2019-02-15T17:33:16.909Z,96624.47
2019-02-15T17:35:47.542Z,96630.35
2019-02-15T17:38:16.858Z,96632.37
2019-02-15T17:40:46.243Z,96631.27
2019-02-15T17:43:15.676Z,96641.06
2019-02-15T17:45:45.069Z,96633.63
2019-02-15T17:48:14.541Z,96634.70
2019-02-15T17:50:43.891Z,96636.78
2019-02-15T17:53:13.284Z,96633.86
2019-02-15T17:55:42.699Z,96639.99
2019-02-15T17:58:12.148Z,96627.66
2019-02-15T18:00:41.584Z,96630.83
2019-02-15T18:03:11.370Z,96629.57
2019-02-15T18:05:41.046Z,96632.75
2019-02-15T18:08:10.416Z,96629.92
2019-02-15T18:10:39.816Z,96630.02
2019-02-15T18:13:09.343Z,96633.23
2019-02-15T18:15:39.237Z,96635.86
2019-02-15T18:18:08.752Z,96638.56
2019-02-15T18:20:38.191Z,96636.55
2019-02-15T18:23:07.569Z,96643.24
2019-02-15T18:25:36.986Z,96645.61
2019-02-15T18:28:06.402Z,96648.12
2019-02-15T18:30:35.824Z,96645.26
2019-02-15T18:33:05.465Z,96644.73
2019-02-15T18:35:35.276Z,96638.86
2019-02-15T18:38:05.039Z,96635.58
2019-02-15T18:40:34.432Z,96649.97
2019-02-15T18:43:03.823Z,96641.06
2019-02-15T18:45:33.309Z,96647.03
2019-02-15T18:48:03.864Z,96649.14
2019-02-15T18:50:33.238Z,96658.56
2019-02-15T18:53:02.664Z,96657.05
2019-02-15T18:55:32.046Z,96662.37
2019-02-15T18:58:01.373Z,96656.55
2019-02-15T19:00:30.764Z,96658.87
2019-02-15T19:03:00.299Z,96654.84
2019-02-15T19:05:29.768Z,96654.84
2019-02-15T19:07:59.243Z,96655.55
2019-02-15T19:10:28.580Z,96643.86
2019-02-15T19:12:58.146Z,96649.73
2019-02-15T19:15:27.570Z,96649.73
2019-02-15T19:17:56.927Z,96657.70
2019-02-15T19:20:26.394Z,96649.13
2019-02-15T19:22:55.958Z,96647.86
2019-02-15T19:25:25.421Z,96647.86
2019-02-15T19:27:54.757Z,96643.17
2019-02-15T19:30:25.027Z,96654.45
2019-02-15T19:32:54.439Z,96655.59
2019-02-15T19:35:23.813Z,96654.25
2019-02-15T19:37:53.217Z,96648.05
2019-02-15T19:40:22.615Z,96650.16
2019-02-15T19:42:53.458Z,96645.32
2019-02-15T19:45:22.803Z,96652.23
2019-02-15T19:47:52.190Z,96651.98
2019-02-15T19:50:21.508Z,96653.12
2019-02-15T19:52:50.882Z,96653.38
2019-02-15T19:55:20.255Z,96650.55
2019-02-15T19:57:51.051Z,96647.53
2019-02-15T20:00:20.391Z,96640.81
2019-02-15T20:02:49.742Z,96640.81
2019-02-15T20:05:19.168Z,96638.87
2019-02-15T20:07:48.529Z,96643.92
2019-02-15T20:10:19.375Z,96647.00
2019-02-15T20:12:48.737Z,96643.33
2019-02-15T20:15:18.242Z,96638.89
2019-02-15T20:17:47.617Z,96628.80
2019-02-15T20:20:17.032Z,96634.17
2019-02-15T20:22:47.138Z,96642.92
2019-02-15T20:25:16.514Z,96641.33
2019-02-15T20:27:45.929Z,96640.52
2019-02-15T20:30:17.876Z,96643.47
2019-02-15T20:32:47.372Z,96642.41
2019-02-15T20:35:16.719Z,96640.22
2019-02-15T20:37:46.272Z,96646.34
2019-02-15T20:40:15.621Z,96644.50
2019-02-15T20:42:47.310Z,96645.04
2019-02-15T20:45:18.282Z,96646.92
2019-02-15T20:47:47.628Z,96680.88
2019-02-15T20:50:17.279Z,96640.66
2019-02-15T20:52:46.602Z,96644.98
2019-02-15T20:55:16.235Z,96653.28
2019-02-15T20:57:45.960Z,96651.42
2019-02-15T21:00:20.711Z,96651.42
2019-02-15T21:02:50.085Z,96640.36
2019-02-15T21:05:19.405Z,96649.13
2019-02-15T21:07:48.756Z,96649.04
2019-02-15T21:10:18.212Z,96649.99
2019-02-15T21:12:47.858Z,96647.00
2019-02-15T21:15:17.304Z,96655.48
2019-02-15T21:17:46.700Z,96651.75
2019-02-15T21:20:16.088Z,96648.97
2019-02-15T21:22:45.521Z,96645.14
2019-02-15T21:25:15.008Z,96656.74
2019-02-15T21:27:44.347Z,96691.52
2019-02-15T21:30:14.485Z,96662.01
2019-02-15T21:32:44.041Z,96662.01
2019-02-15T21:35:13.530Z,96650.73
2019-02-15T21:37:45.341Z,96661.05
2019-02-15T21:40:15.658Z,96661.05
2019-02-15T21:42:45.158Z,96660.02
2019-02-15T21:45:14.781Z,96665.08
2019-02-15T21:47:44.245Z,96666.62
2019-02-15T21:50:32.291Z,96667.38
2019-02-15T21:53:10.422Z,96665.33
2019-02-15T21:55:42.213Z,96664.96
2019-02-15T21:58:20.409Z,96661.95
2019-02-15T22:00:50.146Z,96656.91
2019-02-15T22:03:19.575Z,96661.63
2019-02-15T22:05:49.023Z,96663.21
2019-02-15T22:08:18.626Z,96657.12
2019-02-15T22:10:48.039Z,96651.72
2019-02-15T22:13:20.385Z,96652.02
2019-02-15T22:15:52.828Z,96657.00
2019-02-15T22:18:22.153Z,96659.14
2019-02-15T22:20:51.510Z,96662.61
2019-02-15T22:23:20.855Z,96658.58
2019-02-15T22:25:50.219Z,96668.67
2019-02-15T22:28:19.546Z,96660.09
2019-02-15T22:30:48.873Z,96661.25
2019-02-15T22:33:18.205Z,96662.72
2019-02-15T22:35:47.601Z,96665.80
2019-02-15T22:38:16.928Z,96666.83
2019-02-15T22:40:46.985Z,96668.80
2019-02-15T22:43:21.794Z,96662.53
2019-02-15T22:45:51.100Z,96657.59
2019-02-15T22:48:20.503Z,96663.81
2019-02-15T22:50:49.883Z,96665.98
2019-02-15T22:53:19.263Z,96659.64
2019-02-15T22:55:48.599Z,96659.64
2019-02-15T22:58:18.348Z,96659.30
2019-02-15T23:00:58.397Z,96669.86
2019-02-15T23:03:27.999Z,96659.56
2019-02-15T23:05:57.439Z,96665.44
2019-02-15T23:08:26.799Z,96656.94
2019-02-15T23:10:56.144Z,96662.78
2019-02-15T23:13:25.492Z,96655.49
2019-02-15T23:15:54.787Z,96656.98
2019-02-15T23:18:24.105Z,96660.93
2019-02-15T23:20:53.466Z,96655.17
2019-02-15T23:23:22.792Z,96658.67
2019-02-15T23:25:52.239Z,96656.50
2019-02-15T23:28:21.611Z,96651.62
2019-02-15T23:30:50.971Z,96649.77
2019-02-15T23:33:20.349Z,96654.61
2019-02-15T23:35:49.690Z,96653.06
2019-02-15T23:38:19.052Z,96650.11
2019-02-15T23:40:48.396Z,96650.11
2019-02-15T23:43:17.784Z,96648.70
2019-02-15T23:45:47.229Z,96655.83
2019-02-15T23:48:16.628Z,96652.51
2019-02-15T23:50:54.199Z,96652.43
2019-02-15T23:53:17.071Z,96649.66
2019-02-15T23:55:46.476Z,96656.61
2019-02-15T23:58:15.825Z,96656.61
